Jackson Hole Information

FAA: JAC - ICAO: KJAC

Jackson Hole (Airport) Location

State Wyoming
County Teton
City Jackson
Jackson Hole (Airport) is 7 miles north of Jackson, WY.
Latitude 43-36-26.4000N
Longitude 110-44-15.9000W
Elevation 6,450ft

Jackson Hole METARs

METAR KJAC 281256Z 21010KT 10SM OVC046 04/M02 A3033 RMK AO2 SLP275 T00391022
Altimeter 30.33"
Temperature 3.9°C (39.0°F)
Wind 210° at 10KT
Clouds overcast at 4,600ft
Visibility 10.0mi
Time observed: 2021-10-28T12:56:00Z

Jackson Hole (Airport) Details

Status Operational
Activation October 1941
Ownership Public
Usage Public
Chart SALT LAKE CITY
ATC on-site Yes
Beacon schedule sunset-sunrise
Beacon color clear green

Jackson Hole (Airport) Contacts

Owner JACKSON HOLE AIRPORT BOARD
Owner address P. O. BOX 159, JACKSON, WY 83001
Owner phone 307-733-7682
Manager JEREMY MADOLE
Manager address PO BOX 1648, PINEDALE, WY 82941
Manager phone 307-859-8614

Jackson Hole Radio Frequencies

Jackson Hole (Airport) Radio Frequencies

UNICOM 122.95
Common traffic advisory frequency (CTAF) 118.075